sensor_id;sensor_type;location;lat;lon;timestamp;P1;durP1;ratioP1;P2;durP2;ratioP2
69081;SDS011;56184;51.986;5.760;2022-10-31T00:03:42;14.60;;;7.13;;
69081;SDS011;56184;51.986;5.760;2022-10-31T00:06:08;13.52;;;7.43;;
69081;SDS011;56184;51.986;5.760;2022-10-31T00:08:34;18.80;;;7.97;;
69081;SDS011;56184;51.986;5.760;2022-10-31T00:10:59;15.77;;;7.10;;
69081;SDS011;56184;51.986;5.760;2022-10-31T00:13:25;17.35;;;7.60;;
69081;SDS011;56184;51.986;5.760;2022-10-31T00:15:51;14.48;;;6.82;;
69081;SDS011;56184;51.986;5.760;2022-10-31T00:18:16;11.13;;;7.18;;
69081;SDS011;56184;51.986;5.760;2022-10-31T00:20:42;11.80;;;7.05;;
69081;SDS011;56184;51.986;5.760;2022-10-31T00:23:08;12.05;;;6.30;;
69081;SDS011;56184;51.986;5.760;2022-10-31T00:25:36;14.48;;;6.97;;
69081;SDS011;56184;51.986;5.760;2022-10-31T00:28:04;11.30;;;6.78;;
69081;SDS011;56184;51.986;5.760;2022-10-31T00:30:31;14.00;;;7.10;;
69081;SDS011;56184;51.986;5.760;2022-10-31T00:32:57;11.05;;;6.40;;
69081;SDS011;56184;51.986;5.760;2022-10-31T00:35:22;13.27;;;6.72;;
69081;SDS011;56184;51.986;5.760;2022-10-31T00:37:48;14.82;;;6.03;;
69081;SDS011;56184;51.986;5.760;2022-10-31T00:40:13;13.50;;;6.45;;
69081;SDS011;56184;51.986;5.760;2022-10-31T00:42:40;11.95;;;7.10;;
69081;SDS011;56184;51.986;5.760;2022-10-31T00:45:07;14.48;;;6.15;;
69081;SDS011;56184;51.986;5.760;2022-10-31T00:47:33;12.60;;;6.55;;
69081;SDS011;56184;51.986;5.760;2022-10-31T00:49:59;16.17;;;6.18;;
69081;SDS011;56184;51.986;5.760;2022-10-31T00:52:25;13.13;;;7.38;;
69081;SDS011;56184;51.986;5.760;2022-10-31T00:54:50;10.82;;;6.35;;
69081;SDS011;56184;51.986;5.760;2022-10-31T00:57:16;13.20;;;6.53;;
69081;SDS011;56184;51.986;5.760;2022-10-31T00:59:41;11.45;;;6.80;;
69081;SDS011;56184;51.986;5.760;2022-10-31T01:02:07;17.50;;;7.25;;
69081;SDS011;56184;51.986;5.760;2022-10-31T01:04:32;13.48;;;6.88;;
69081;SDS011;56184;51.986;5.760;2022-10-31T01:06:58;15.27;;;7.07;;
69081;SDS011;56184;51.986;5.760;2022-10-31T01:09:23;15.15;;;7.32;;
69081;SDS011;56184;51.986;5.760;2022-10-31T01:11:49;16.80;;;7.15;;
69081;SDS011;56184;51.986;5.760;2022-10-31T01:14:14;13.63;;;7.10;;
69081;SDS011;56184;51.986;5.760;2022-10-31T01:16:40;14.50;;;7.07;;
69081;SDS011;56184;51.986;5.760;2022-10-31T01:19:06;17.58;;;7.30;;
69081;SDS011;56184;51.986;5.760;2022-10-31T01:21:31;15.63;;;7.93;;
69081;SDS011;56184;51.986;5.760;2022-10-31T01:23:57;14.98;;;7.72;;
69081;SDS011;56184;51.986;5.760;2022-10-31T01:26:24;13.10;;;7.50;;
69081;SDS011;56184;51.986;5.760;2022-10-31T01:28:52;13.85;;;7.72;;
69081;SDS011;56184;51.986;5.760;2022-10-31T01:31:23;15.15;;;7.75;;
69081;SDS011;56184;51.986;5.760;2022-10-31T01:33:51;17.55;;;8.63;;
69081;SDS011;56184;51.986;5.760;2022-10-31T01:36:21;12.45;;;7.68;;
69081;SDS011;56184;51.986;5.760;2022-10-31T01:38:53;14.32;;;7.78;;
69081;SDS011;56184;51.986;5.760;2022-10-31T01:41:21;18.02;;;7.80;;
69081;SDS011;56184;51.986;5.760;2022-10-31T01:46:24;18.05;;;8.07;;
69081;SDS011;56184;51.986;5.760;2022-10-31T01:48:54;13.45;;;7.70;;
69081;SDS011;56184;51.986;5.760;2022-10-31T01:51:23;12.40;;;7.50;;
69081;SDS011;56184;51.986;5.760;2022-10-31T01:53:55;20.27;;;7.55;;
69081;SDS011;56184;51.986;5.760;2022-10-31T01:56:23;12.40;;;7.03;;
69081;SDS011;56184;51.986;5.760;2022-10-31T01:58:49;17.17;;;7.32;;
69081;SDS011;56184;51.986;5.760;2022-10-31T02:01:16;12.20;;;6.78;;
69081;SDS011;56184;51.986;5.760;2022-10-31T02:03:42;13.60;;;7.47;;
69081;SDS011;56184;51.986;5.760;2022-10-31T02:06:12;11.98;;;7.18;;
69081;SDS011;56184;51.986;5.760;2022-10-31T02:08:47;14.30;;;7.45;;
69081;SDS011;56184;51.986;5.760;2022-10-31T02:11:13;17.55;;;7.53;;
69081;SDS011;56184;51.986;5.760;2022-10-31T02:13:40;15.25;;;7.82;;
69081;SDS011;56184;51.986;5.760;2022-10-31T02:16:06;16.25;;;7.70;;
69081;SDS011;56184;51.986;5.760;2022-10-31T02:18:34;14.38;;;7.40;;
69081;SDS011;56184;51.986;5.760;2022-10-31T02:21:19;10.85;;;7.78;;
69081;SDS011;56184;51.986;5.760;2022-10-31T02:29:25;13.98;;;7.38;;
69081;SDS011;56184;51.986;5.760;2022-10-31T02:38:36;17.60;;;7.10;;
69081;SDS011;56184;51.986;5.760;2022-10-31T02:41:30;13.15;;;7.32;;
69081;SDS011;56184;51.986;5.760;2022-10-31T02:46:45;19.85;;;7.93;;
69081;SDS011;56184;51.986;5.760;2022-10-31T02:49:17;12.85;;;7.28;;
69081;SDS011;56184;51.986;5.760;2022-10-31T02:51:44;12.32;;;6.88;;
69081;SDS011;56184;51.986;5.760;2022-10-31T02:54:17;14.02;;;7.28;;
69081;SDS011;56184;51.986;5.760;2022-10-31T02:56:45;13.38;;;6.78;;
69081;SDS011;56184;51.986;5.760;2022-10-31T02:59:11;10.85;;;6.20;;
69081;SDS011;56184;51.986;5.760;2022-10-31T03:04:14;12.95;;;5.18;;
69081;SDS011;56184;51.986;5.760;2022-10-31T03:12:00;11.57;;;5.10;;
69081;SDS011;56184;51.986;5.760;2022-10-31T03:17:17;10.27;;;4.70;;
69081;SDS011;56184;51.986;5.760;2022-10-31T03:20:06;12.40;;;5.95;;
69081;SDS011;56184;51.986;5.760;2022-10-31T03:22:34;18.33;;;7.47;;
69081;SDS011;56184;51.986;5.760;2022-10-31T03:25:02;13.32;;;6.35;;
69081;SDS011;56184;51.986;5.760;2022-10-31T03:27:31;11.90;;;5.72;;
69081;SDS011;56184;51.986;5.760;2022-10-31T03:30:00;10.05;;;5.85;;
69081;SDS011;56184;51.986;5.760;2022-10-31T03:32:34;13.23;;;6.53;;
69081;SDS011;56184;51.986;5.760;2022-10-31T03:35:04;15.32;;;6.47;;
69081;SDS011;56184;51.986;5.760;2022-10-31T03:37:33;10.43;;;6.18;;
69081;SDS011;56184;51.986;5.760;2022-10-31T03:40:00;9.15;;;6.47;;
69081;SDS011;56184;51.986;5.760;2022-10-31T03:42:30;14.82;;;5.97;;
69081;SDS011;56184;51.986;5.760;2022-10-31T03:44:59;20.20;;;8.98;;
69081;SDS011;56184;51.986;5.760;2022-10-31T03:47:39;16.45;;;7.28;;
69081;SDS011;56184;51.986;5.760;2022-10-31T03:50:08;9.32;;;6.60;;
69081;SDS011;56184;51.986;5.760;2022-10-31T03:52:37;13.82;;;6.32;;
69081;SDS011;56184;51.986;5.760;2022-10-31T03:57:49;11.75;;;6.25;;
69081;SDS011;56184;51.986;5.760;2022-10-31T04:00:20;12.98;;;6.13;;
69081;SDS011;56184;51.986;5.760;2022-10-31T04:02:57;16.77;;;7.00;;
69081;SDS011;56184;51.986;5.760;2022-10-31T04:05:28;14.38;;;7.47;;
69081;SDS011;56184;51.986;5.760;2022-10-31T04:07:55;12.23;;;7.25;;
69081;SDS011;56184;51.986;5.760;2022-10-31T04:10:24;16.13;;;7.53;;
69081;SDS011;56184;51.986;5.760;2022-10-31T04:13:00;13.25;;;7.13;;
69081;SDS011;56184;51.986;5.760;2022-10-31T04:15:30;16.10;;;6.35;;
69081;SDS011;56184;51.986;5.760;2022-10-31T04:17:57;15.55;;;6.97;;
69081;SDS011;56184;51.986;5.760;2022-10-31T04:20:34;8.77;;;5.68;;
69081;SDS011;56184;51.986;5.760;2022-10-31T04:23:04;7.50;;;5.25;;
69081;SDS011;56184;51.986;5.760;2022-10-31T04:25:35;13.02;;;4.80;;
69081;SDS011;56184;51.986;5.760;2022-10-31T04:28:01;10.45;;;4.82;;
69081;SDS011;56184;51.986;5.760;2022-10-31T04:30:26;9.27;;;4.50;;
69081;SDS011;56184;51.986;5.760;2022-10-31T04:32:52;10.02;;;3.95;;
69081;SDS011;56184;51.986;5.760;2022-10-31T04:35:17;6.85;;;2.70;;
69081;SDS011;56184;51.986;5.760;2022-10-31T04:37:43;3.13;;;2.20;;
69081;SDS011;56184;51.986;5.760;2022-10-31T04:40:09;3.00;;;2.20;;
69081;SDS011;56184;51.986;5.760;2022-10-31T04:42:35;4.15;;;2.50;;
69081;SDS011;56184;51.986;5.760;2022-10-31T04:45:00;4.35;;;2.22;;
69081;SDS011;56184;51.986;5.760;2022-10-31T04:47:26;4.82;;;2.95;;
69081;SDS011;56184;51.986;5.760;2022-10-31T04:49:52;3.53;;;2.55;;
69081;SDS011;56184;51.986;5.760;2022-10-31T04:52:17;2.83;;;2.20;;
69081;SDS011;56184;51.986;5.760;2022-10-31T04:54:43;6.45;;;2.58;;
69081;SDS011;56184;51.986;5.760;2022-10-31T04:57:08;8.68;;;2.80;;
69081;SDS011;56184;51.986;5.760;2022-10-31T04:59:34;6.88;;;2.75;;
69081;SDS011;56184;51.986;5.760;2022-10-31T05:01:59;3.10;;;2.70;;
69081;SDS011;56184;51.986;5.760;2022-10-31T05:04:32;5.78;;;3.00;;
69081;SDS011;56184;51.986;5.760;2022-10-31T05:06:57;9.48;;;3.00;;
69081;SDS011;56184;51.986;5.760;2022-10-31T05:09:23;5.72;;;2.92;;
69081;SDS011;56184;51.986;5.760;2022-10-31T05:11:48;4.13;;;3.05;;
69081;SDS011;56184;51.986;5.760;2022-10-31T05:14:14;6.10;;;3.40;;
69081;SDS011;56184;51.986;5.760;2022-10-31T05:16:39;5.82;;;3.47;;
69081;SDS011;56184;51.986;5.760;2022-10-31T05:19:05;5.47;;;3.83;;
69081;SDS011;56184;51.986;5.760;2022-10-31T05:21:30;4.68;;;3.40;;
69081;SDS011;56184;51.986;5.760;2022-10-31T05:23:56;5.15;;;3.63;;
69081;SDS011;56184;51.986;5.760;2022-10-31T05:26:21;10.70;;;4.03;;
69081;SDS011;56184;51.986;5.760;2022-10-31T05:28:47;9.68;;;3.38;;
69081;SDS011;56184;51.986;5.760;2022-10-31T05:31:12;11.60;;;3.55;;
69081;SDS011;56184;51.986;5.760;2022-10-31T05:33:38;4.55;;;3.63;;
69081;SDS011;56184;51.986;5.760;2022-10-31T05:36:04;6.38;;;3.30;;
69081;SDS011;56184;51.986;5.760;2022-10-31T05:38:29;8.88;;;3.72;;
69081;SDS011;56184;51.986;5.760;2022-10-31T05:40:55;4.35;;;3.60;;
69081;SDS011;56184;51.986;5.760;2022-10-31T05:43:26;7.13;;;3.00;;
69081;SDS011;56184;51.986;5.760;2022-10-31T05:45:53;4.13;;;2.88;;
69081;SDS011;56184;51.986;5.760;2022-10-31T05:48:19;5.38;;;3.60;;
69081;SDS011;56184;51.986;5.760;2022-10-31T05:50:44;7.13;;;2.80;;
69081;SDS011;56184;51.986;5.760;2022-10-31T05:53:13;3.95;;;3.05;;
69081;SDS011;56184;51.986;5.760;2022-10-31T05:55:38;3.03;;;2.50;;
69081;SDS011;56184;51.986;5.760;2022-10-31T05:58:05;2.72;;;2.30;;
69081;SDS011;56184;51.986;5.760;2022-10-31T06:00:31;3.80;;;2.88;;
69081;SDS011;56184;51.986;5.760;2022-10-31T06:03:00;4.13;;;3.00;;
69081;SDS011;56184;51.986;5.760;2022-10-31T06:05:27;7.63;;;3.75;;
69081;SDS011;56184;51.986;5.760;2022-10-31T06:07:53;3.45;;;3.15;;
69081;SDS011;56184;51.986;5.760;2022-10-31T06:10:19;7.63;;;3.30;;
69081;SDS011;56184;51.986;5.760;2022-10-31T06:12:45;7.72;;;2.85;;
69081;SDS011;56184;51.986;5.760;2022-10-31T06:15:12;5.93;;;3.17;;
69081;SDS011;56184;51.986;5.760;2022-10-31T06:17:37;4.47;;;3.15;;
69081;SDS011;56184;51.986;5.760;2022-10-31T06:20:03;6.10;;;3.65;;
69081;SDS011;56184;51.986;5.760;2022-10-31T06:22:30;5.53;;;4.20;;
69081;SDS011;56184;51.986;5.760;2022-10-31T06:24:55;5.55;;;3.97;;
69081;SDS011;56184;51.986;5.760;2022-10-31T06:27:21;6.22;;;4.10;;
69081;SDS011;56184;51.986;5.760;2022-10-31T06:29:47;4.90;;;3.97;;
69081;SDS011;56184;51.986;5.760;2022-10-31T06:32:13;5.60;;;4.60;;
69081;SDS011;56184;51.986;5.760;2022-10-31T06:34:39;4.85;;;3.78;;
69081;SDS011;56184;51.986;5.760;2022-10-31T06:37:06;5.97;;;4.38;;
69081;SDS011;56184;51.986;5.760;2022-10-31T06:39:33;5.50;;;4.00;;
69081;SDS011;56184;51.986;5.760;2022-10-31T06:41:59;8.90;;;3.85;;
69081;SDS011;56184;51.986;5.760;2022-10-31T06:44:24;7.05;;;5.10;;
69081;SDS011;56184;51.986;5.760;2022-10-31T06:46:50;6.38;;;4.47;;
69081;SDS011;56184;51.986;5.760;2022-10-31T06:49:15;9.07;;;4.72;;
69081;SDS011;56184;51.986;5.760;2022-10-31T06:51:41;5.68;;;3.85;;
69081;SDS011;56184;51.986;5.760;2022-10-31T06:54:07;6.82;;;3.90;;
69081;SDS011;56184;51.986;5.760;2022-10-31T06:56:33;5.53;;;3.63;;
69081;SDS011;56184;51.986;5.760;2022-10-31T06:58:58;6.95;;;3.63;;
69081;SDS011;56184;51.986;5.760;2022-10-31T07:01:24;5.45;;;4.15;;
69081;SDS011;56184;51.986;5.760;2022-10-31T07:03:50;7.95;;;4.55;;
69081;SDS011;56184;51.986;5.760;2022-10-31T07:06:15;7.40;;;3.90;;
69081;SDS011;56184;51.986;5.760;2022-10-31T07:08:41;8.48;;;4.00;;
69081;SDS011;56184;51.986;5.760;2022-10-31T07:11:06;7.97;;;4.95;;
69081;SDS011;56184;51.986;5.760;2022-10-31T07:13:32;6.03;;;4.20;;
69081;SDS011;56184;51.986;5.760;2022-10-31T07:16:02;5.93;;;4.07;;
69081;SDS011;56184;51.986;5.760;2022-10-31T07:18:28;5.82;;;4.03;;
69081;SDS011;56184;51.986;5.760;2022-10-31T07:20:54;8.02;;;4.20;;
69081;SDS011;56184;51.986;5.760;2022-10-31T07:23:20;7.15;;;4.70;;
69081;SDS011;56184;51.986;5.760;2022-10-31T07:25:46;9.80;;;4.57;;
69081;SDS011;56184;51.986;5.760;2022-10-31T07:28:12;9.73;;;5.00;;
69081;SDS011;56184;51.986;5.760;2022-10-31T07:30:38;7.45;;;4.60;;
69081;SDS011;56184;51.986;5.760;2022-10-31T07:33:04;6.38;;;4.80;;
69081;SDS011;56184;51.986;5.760;2022-10-31T07:35:31;12.45;;;5.30;;
69081;SDS011;56184;51.986;5.760;2022-10-31T07:37:57;9.70;;;4.72;;
69081;SDS011;56184;51.986;5.760;2022-10-31T07:40:31;12.07;;;5.00;;
69081;SDS011;56184;51.986;5.760;2022-10-31T07:42:57;12.27;;;5.55;;
69081;SDS011;56184;51.986;5.760;2022-10-31T07:45:22;8.70;;;5.45;;
69081;SDS011;56184;51.986;5.760;2022-10-31T07:47:49;9.25;;;5.25;;
69081;SDS011;56184;51.986;5.760;2022-10-31T07:50:17;10.13;;;5.93;;
69081;SDS011;56184;51.986;5.760;2022-10-31T07:52:45;8.07;;;5.28;;
69081;SDS011;56184;51.986;5.760;2022-10-31T07:55:10;9.00;;;5.65;;
69081;SDS011;56184;51.986;5.760;2022-10-31T07:57:36;9.77;;;5.88;;
69081;SDS011;56184;51.986;5.760;2022-10-31T08:00:05;21.17;;;7.90;;
69081;SDS011;56184;51.986;5.760;2022-10-31T08:02:33;15.55;;;6.85;;
69081;SDS011;56184;51.986;5.760;2022-10-31T08:04:58;9.95;;;6.25;;
69081;SDS011;56184;51.986;5.760;2022-10-31T08:07:25;15.85;;;6.13;;
69081;SDS011;56184;51.986;5.760;2022-10-31T08:09:51;11.27;;;6.50;;
69081;SDS011;56184;51.986;5.760;2022-10-31T08:12:17;11.18;;;6.68;;
69081;SDS011;56184;51.986;5.760;2022-10-31T08:14:43;16.60;;;7.55;;
69081;SDS011;56184;51.986;5.760;2022-10-31T08:17:09;12.77;;;7.45;;
69081;SDS011;56184;51.986;5.760;2022-10-31T08:19:35;16.40;;;7.85;;
69081;SDS011;56184;51.986;5.760;2022-10-31T08:22:02;10.70;;;7.43;;
69081;SDS011;56184;51.986;5.760;2022-10-31T08:24:28;13.10;;;7.53;;
69081;SDS011;56184;51.986;5.760;2022-10-31T08:26:54;12.77;;;6.78;;
69081;SDS011;56184;51.986;5.760;2022-10-31T08:29:19;11.90;;;6.40;;
69081;SDS011;56184;51.986;5.760;2022-10-31T08:31:45;14.82;;;7.07;;
69081;SDS011;56184;51.986;5.760;2022-10-31T08:34:10;14.25;;;7.25;;
69081;SDS011;56184;51.986;5.760;2022-10-31T08:36:36;9.90;;;6.55;;
69081;SDS011;56184;51.986;5.760;2022-10-31T08:39:02;14.75;;;7.50;;
69081;SDS011;56184;51.986;5.760;2022-10-31T08:41:28;13.68;;;8.50;;
69081;SDS011;56184;51.986;5.760;2022-10-31T08:43:54;14.88;;;9.45;;
69081;SDS011;56184;51.986;5.760;2022-10-31T08:46:19;19.90;;;9.73;;
69081;SDS011;56184;51.986;5.760;2022-10-31T08:48:47;19.35;;;9.55;;
69081;SDS011;56184;51.986;5.760;2022-10-31T08:51:13;14.77;;;9.30;;
69081;SDS011;56184;51.986;5.760;2022-10-31T08:53:39;18.40;;;10.23;;
69081;SDS011;56184;51.986;5.760;2022-10-31T08:56:05;23.85;;;10.55;;
69081;SDS011;56184;51.986;5.760;2022-10-31T08:58:31;19.00;;;10.32;;
69081;SDS011;56184;51.986;5.760;2022-10-31T09:00:58;17.00;;;10.02;;
69081;SDS011;56184;51.986;5.760;2022-10-31T09:03:26;17.60;;;10.50;;
69081;SDS011;56184;51.986;5.760;2022-10-31T09:05:57;17.30;;;9.98;;
69081;SDS011;56184;51.986;5.760;2022-10-31T09:08:24;15.02;;;10.23;;
69081;SDS011;56184;51.986;5.760;2022-10-31T09:10:50;21.30;;;8.90;;
69081;SDS011;56184;51.986;5.760;2022-10-31T09:13:17;17.00;;;8.98;;
69081;SDS011;56184;51.986;5.760;2022-10-31T09:15:44;22.17;;;9.98;;
69081;SDS011;56184;51.986;5.760;2022-10-31T09:18:12;20.23;;;9.90;;
69081;SDS011;56184;51.986;5.760;2022-10-31T09:20:39;18.83;;;9.10;;
69081;SDS011;56184;51.986;5.760;2022-10-31T09:23:08;18.88;;;9.40;;
69081;SDS011;56184;51.986;5.760;2022-10-31T09:25:36;22.42;;;10.05;;
69081;SDS011;56184;51.986;5.760;2022-10-31T09:28:03;19.45;;;9.40;;
69081;SDS011;56184;51.986;5.760;2022-10-31T09:30:31;20.85;;;9.13;;
69081;SDS011;56184;51.986;5.760;2022-10-31T09:33:00;16.17;;;9.10;;
69081;SDS011;56184;51.986;5.760;2022-10-31T09:35:30;16.55;;;8.77;;
69081;SDS011;56184;51.986;5.760;2022-10-31T09:38:03;17.83;;;8.90;;
69081;SDS011;56184;51.986;5.760;2022-10-31T09:46:23;16.17;;;9.30;;
69081;SDS011;56184;51.986;5.760;2022-10-31T09:51:31;20.80;;;9.80;;
69081;SDS011;56184;51.986;5.760;2022-10-31T09:56:31;20.50;;;9.93;;
69081;SDS011;56184;51.986;5.760;2022-10-31T09:59:00;13.88;;;9.65;;
69081;SDS011;56184;51.986;5.760;2022-10-31T10:04:38;20.35;;;10.43;;
69081;SDS011;56184;51.986;5.760;2022-10-31T10:10:14;18.75;;;10.70;;
69081;SDS011;56184;51.986;5.760;2022-10-31T10:18:35;25.15;;;10.45;;
69081;SDS011;56184;51.986;5.760;2022-10-31T10:21:04;22.48;;;11.80;;
69081;SDS011;56184;51.986;5.760;2022-10-31T10:26:36;21.42;;;11.85;;
69081;SDS011;56184;51.986;5.760;2022-10-31T10:31:42;25.65;;;13.27;;
69081;SDS011;56184;51.986;5.760;2022-10-31T10:37:09;28.02;;;13.38;;
69081;SDS011;56184;51.986;5.760;2022-10-31T10:39:48;20.55;;;12.70;;
69081;SDS011;56184;51.986;5.760;2022-10-31T10:42:18;24.65;;;14.18;;
69081;SDS011;56184;51.986;5.760;2022-10-31T10:45:36;27.52;;;14.27;;
69081;SDS011;56184;51.986;5.760;2022-10-31T10:51:19;26.23;;;13.82;;
69081;SDS011;56184;51.986;5.760;2022-10-31T10:53:51;32.08;;;13.65;;
69081;SDS011;56184;51.986;5.760;2022-10-31T10:59:13;31.83;;;16.02;;
69081;SDS011;56184;51.986;5.760;2022-10-31T11:01:43;28.30;;;14.15;;
69081;SDS011;56184;51.986;5.760;2022-10-31T11:06:57;23.52;;;12.90;;
69081;SDS011;56184;51.986;5.760;2022-10-31T11:09:28;27.02;;;13.73;;
69081;SDS011;56184;51.986;5.760;2022-10-31T11:11:54;27.17;;;14.00;;
69081;SDS011;56184;51.986;5.760;2022-10-31T11:14:21;25.80;;;12.93;;
69081;SDS011;56184;51.986;5.760;2022-10-31T11:16:50;31.90;;;12.73;;
69081;SDS011;56184;51.986;5.760;2022-10-31T11:19:25;26.05;;;12.43;;
69081;SDS011;56184;51.986;5.760;2022-10-31T11:21:52;24.97;;;13.10;;
69081;SDS011;56184;51.986;5.760;2022-10-31T11:24:22;25.80;;;13.20;;
69081;SDS011;56184;51.986;5.760;2022-10-31T11:26:51;23.05;;;12.50;;
69081;SDS011;56184;51.986;5.760;2022-10-31T11:29:27;24.90;;;13.18;;
69081;SDS011;56184;51.986;5.760;2022-10-31T11:31:53;28.30;;;13.48;;
69081;SDS011;56184;51.986;5.760;2022-10-31T11:34:37;24.65;;;13.02;;
69081;SDS011;56184;51.986;5.760;2022-10-31T11:37:41;28.00;;;16.17;;
69081;SDS011;56184;51.986;5.760;2022-10-31T11:40:02;26.52;;;14.43;;
69081;SDS011;56184;51.986;5.760;2022-10-31T11:42:34;27.95;;;14.52;;
69081;SDS011;56184;51.986;5.760;2022-10-31T11:48:12;27.02;;;13.90;;
69081;SDS011;56184;51.986;5.760;2022-10-31T11:50:47;28.73;;;13.70;;
69081;SDS011;56184;51.986;5.760;2022-10-31T11:53:25;31.92;;;14.18;;
69081;SDS011;56184;51.986;5.760;2022-10-31T11:56:05;29.83;;;14.43;;
69081;SDS011;56184;51.986;5.760;2022-10-31T11:58:41;30.70;;;14.82;;
69081;SDS011;56184;51.986;5.760;2022-10-31T12:01:20;30.92;;;15.63;;
69081;SDS011;56184;51.986;5.760;2022-10-31T12:04:11;29.38;;;15.75;;
69081;SDS011;56184;51.986;5.760;2022-10-31T12:06:38;37.15;;;15.35;;
69081;SDS011;56184;51.986;5.760;2022-10-31T12:09:18;31.45;;;16.08;;
69081;SDS011;56184;51.986;5.760;2022-10-31T12:12:10;33.00;;;15.30;;
69081;SDS011;56184;51.986;5.760;2022-10-31T12:14:41;32.22;;;16.02;;
69081;SDS011;56184;51.986;5.760;2022-10-31T12:17:19;36.00;;;15.25;;
69081;SDS011;56184;51.986;5.760;2022-10-31T12:25:59;32.60;;;16.20;;
69081;SDS011;56184;51.986;5.760;2022-10-31T12:31:34;33.90;;;16.42;;
69081;SDS011;56184;51.986;5.760;2022-10-31T12:45:53;31.67;;;14.95;;
69081;SDS011;56184;51.986;5.760;2022-10-31T12:59:33;25.92;;;14.55;;
69081;SDS011;56184;51.986;5.760;2022-10-31T13:05:02;41.17;;;15.98;;
69081;SDS011;56184;51.986;5.760;2022-10-31T13:07:40;30.08;;;14.75;;
69081;SDS011;56184;51.986;5.760;2022-10-31T13:13:09;33.00;;;16.17;;
69081;SDS011;56184;51.986;5.760;2022-10-31T13:15:48;34.28;;;15.38;;
69081;SDS011;56184;51.986;5.760;2022-10-31T13:18:26;29.40;;;15.30;;
69081;SDS011;56184;51.986;5.760;2022-10-31T13:20:53;31.45;;;16.10;;
69081;SDS011;56184;51.986;5.760;2022-10-31T13:25:56;30.02;;;14.73;;
69081;SDS011;56184;51.986;5.760;2022-10-31T13:31:01;33.72;;;15.38;;
69081;SDS011;56184;51.986;5.760;2022-10-31T13:33:31;39.13;;;16.60;;
69081;SDS011;56184;51.986;5.760;2022-10-31T13:36:25;32.17;;;14.95;;
69081;SDS011;56184;51.986;5.760;2022-10-31T13:42:13;32.92;;;15.30;;
69081;SDS011;56184;51.986;5.760;2022-10-31T13:44:47;36.45;;;16.27;;
69081;SDS011;56184;51.986;5.760;2022-10-31T13:47:29;29.48;;;16.10;;
69081;SDS011;56184;51.986;5.760;2022-10-31T13:50:05;31.45;;;14.63;;
69081;SDS011;56184;51.986;5.760;2022-10-31T13:52:44;34.28;;;16.17;;
69081;SDS011;56184;51.986;5.760;2022-10-31T14:03:24;33.88;;;15.25;;
69081;SDS011;56184;51.986;5.760;2022-10-31T14:05:53;32.47;;;15.45;;
69081;SDS011;56184;51.986;5.760;2022-10-31T14:08:21;29.80;;;14.38;;
69081;SDS011;56184;51.986;5.760;2022-10-31T14:10:52;31.50;;;15.35;;
69081;SDS011;56184;51.986;5.760;2022-10-31T14:13:25;38.75;;;15.18;;
69081;SDS011;56184;51.986;5.760;2022-10-31T14:18:37;39.35;;;15.15;;
69081;SDS011;56184;51.986;5.760;2022-10-31T14:21:25;27.65;;;13.57;;
69081;SDS011;56184;51.986;5.760;2022-10-31T14:23:56;29.80;;;13.43;;
69081;SDS011;56184;51.986;5.760;2022-10-31T14:28:57;34.63;;;13.32;;
69081;SDS011;56184;51.986;5.760;2022-10-31T14:31:39;33.70;;;14.15;;
69081;SDS011;56184;51.986;5.760;2022-10-31T14:36:41;32.33;;;13.68;;
69081;SDS011;56184;51.986;5.760;2022-10-31T14:39:37;30.27;;;13.20;;
69081;SDS011;56184;51.986;5.760;2022-10-31T14:42:19;26.65;;;13.80;;
69081;SDS011;56184;51.986;5.760;2022-10-31T14:47:59;30.05;;;13.05;;
69081;SDS011;56184;51.986;5.760;2022-10-31T14:50:49;35.65;;;15.52;;
69081;SDS011;56184;51.986;5.760;2022-10-31T14:53:22;36.53;;;13.55;;
69081;SDS011;56184;51.986;5.760;2022-10-31T14:55:52;32.55;;;14.82;;
69081;SDS011;56184;51.986;5.760;2022-10-31T14:58:23;37.03;;;14.77;;
69081;SDS011;56184;51.986;5.760;2022-10-31T15:00:56;39.80;;;15.30;;
69081;SDS011;56184;51.986;5.760;2022-10-31T15:03:42;35.72;;;14.15;;
69081;SDS011;56184;51.986;5.760;2022-10-31T15:06:11;31.25;;;14.30;;
69081;SDS011;56184;51.986;5.760;2022-10-31T15:08:44;29.33;;;14.52;;
69081;SDS011;56184;51.986;5.760;2022-10-31T15:11:18;28.52;;;14.63;;
69081;SDS011;56184;51.986;5.760;2022-10-31T15:13:53;26.30;;;13.30;;
69081;SDS011;56184;51.986;5.760;2022-10-31T15:16:30;33.25;;;13.70;;
69081;SDS011;56184;51.986;5.760;2022-10-31T15:18:59;35.03;;;14.57;;
69081;SDS011;56184;51.986;5.760;2022-10-31T15:21:28;35.65;;;14.60;;
69081;SDS011;56184;51.986;5.760;2022-10-31T15:23:58;29.38;;;13.90;;
69081;SDS011;56184;51.986;5.760;2022-10-31T15:26:32;28.45;;;13.40;;
69081;SDS011;56184;51.986;5.760;2022-10-31T15:29:04;31.75;;;15.27;;
69081;SDS011;56184;51.986;5.760;2022-10-31T15:31:36;28.95;;;15.13;;
69081;SDS011;56184;51.986;5.760;2022-10-31T15:34:06;31.38;;;14.75;;
69081;SDS011;56184;51.986;5.760;2022-10-31T15:36:41;31.75;;;14.93;;
69081;SDS011;56184;51.986;5.760;2022-10-31T15:39:09;27.50;;;14.13;;
69081;SDS011;56184;51.986;5.760;2022-10-31T15:41:43;31.80;;;15.40;;
69081;SDS011;56184;51.986;5.760;2022-10-31T15:46:55;34.80;;;15.02;;
69081;SDS011;56184;51.986;5.760;2022-10-31T15:49:27;36.63;;;16.00;;
69081;SDS011;56184;51.986;5.760;2022-10-31T15:51:56;34.35;;;14.63;;
69081;SDS011;56184;51.986;5.760;2022-10-31T15:54:24;37.85;;;14.80;;
69081;SDS011;56184;51.986;5.760;2022-10-31T15:56:51;33.88;;;15.05;;
69081;SDS011;56184;51.986;5.760;2022-10-31T15:59:21;32.60;;;15.02;;
69081;SDS011;56184;51.986;5.760;2022-10-31T16:04:48;31.17;;;14.98;;
69081;SDS011;56184;51.986;5.760;2022-10-31T16:07:15;31.55;;;14.63;;
69081;SDS011;56184;51.986;5.760;2022-10-31T16:09:49;35.30;;;15.90;;
69081;SDS011;56184;51.986;5.760;2022-10-31T16:12:15;24.55;;;11.50;;
69081;SDS011;56184;51.986;5.760;2022-10-31T16:14:41;27.58;;;14.05;;
69081;SDS011;56184;51.986;5.760;2022-10-31T16:17:11;35.35;;;15.35;;
69081;SDS011;56184;51.986;5.760;2022-10-31T16:19:45;39.38;;;17.40;;
69081;SDS011;56184;51.986;5.760;2022-10-31T16:22:25;38.00;;;16.45;;
69081;SDS011;56184;51.986;5.760;2022-10-31T16:25:04;35.95;;;15.75;;
69081;SDS011;56184;51.986;5.760;2022-10-31T16:27:39;31.67;;;15.60;;
69081;SDS011;56184;51.986;5.760;2022-10-31T16:32:59;34.90;;;16.73;;
69081;SDS011;56184;51.986;5.760;2022-10-31T16:35:36;33.70;;;15.80;;
69081;SDS011;56184;51.986;5.760;2022-10-31T16:38:03;36.08;;;16.92;;
69081;SDS011;56184;51.986;5.760;2022-10-31T16:40:29;36.63;;;15.63;;
69081;SDS011;56184;51.986;5.760;2022-10-31T16:42:56;35.08;;;16.15;;
69081;SDS011;56184;51.986;5.760;2022-10-31T16:45:24;35.80;;;15.93;;
69081;SDS011;56184;51.986;5.760;2022-10-31T16:47:52;35.88;;;15.90;;
69081;SDS011;56184;51.986;5.760;2022-10-31T16:50:22;27.13;;;13.35;;
69081;SDS011;56184;51.986;5.760;2022-10-31T16:52:51;36.72;;;16.65;;
69081;SDS011;56184;51.986;5.760;2022-10-31T16:55:30;42.83;;;16.85;;
69081;SDS011;56184;51.986;5.760;2022-10-31T16:57:59;32.95;;;14.45;;
69081;SDS011;56184;51.986;5.760;2022-10-31T17:00:26;33.22;;;17.77;;
69081;SDS011;56184;51.986;5.760;2022-10-31T17:02:53;39.95;;;18.70;;
69081;SDS011;56184;51.986;5.760;2022-10-31T17:05:23;36.13;;;16.92;;
69081;SDS011;56184;51.986;5.760;2022-10-31T17:07:57;38.25;;;17.48;;
69081;SDS011;56184;51.986;5.760;2022-10-31T17:10:23;41.08;;;17.20;;
69081;SDS011;56184;51.986;5.760;2022-10-31T17:12:50;35.63;;;17.25;;
69081;SDS011;56184;51.986;5.760;2022-10-31T17:17:46;37.83;;;15.52;;
69081;SDS011;56184;51.986;5.760;2022-10-31T17:20:16;40.22;;;17.77;;